Time;durP1;ratioP1;P1;durP2;ratioP2;P2;SDS_P1;SDS_P2;PMS_P1;PMS_P2;Temp;Humidity;BMP_temperature;BMP_pressure;BME280_temperature;BME280_humidity;BME280_pressure;Samples;Min_cycle;Max_cycle;Signal;HPM_P1;HPM_P2
2023/11/02 00:01:22;;;;;;;;;;;10.10;99.90;;;;;;5054878;28;20027;-77
2023/11/02 00:03:48;;;;;;;;;;;10.10;99.90;;;;;;5054760;28;19909;-78
2023/11/02 00:06:34;;;;;;;;;;;10.10;99.90;;;;;;5054784;28;20324;-77
2023/11/02 00:09:03;;;;;;;;;;;10.10;99.90;;;;;;5053228;28;19916;-77
2023/11/02 00:11:47;;;;;;;;;;;10.20;99.90;;;;;;5054932;28;19912;-77
2023/11/02 00:14:13;;;;;;;;;;;10.20;99.90;;;;;;5053036;28;19908;-77
2023/11/02 00:16:38;;;;;;;;;;;10.20;99.90;;;;;;5053945;28;19962;-77
2023/11/02 00:19:05;;;;;;;;;;;10.30;99.90;;;;;;5055947;28;19912;-78
2023/11/02 00:21:32;;;;;;;;;;;10.30;99.90;;;;;;5058001;28;19920;-78
2023/11/02 00:23:59;;;;;;;;;;;10.40;99.90;;;;;;5055746;28;19912;-77
2023/11/02 00:26:25;;;;;;;;;;;10.40;99.90;;;;;;5053543;28;19909;-76
2023/11/02 00:28:51;;;;;;;;;;;10.30;99.90;;;;;;5054220;28;20364;-76
2023/11/02 00:31:16;;;;;;;;;;;10.30;99.90;;;;;;5036079;28;19995;-77
2023/11/02 00:33:42;;;;;;;;;;;10.30;99.90;;;;;;5035481;28;19915;-76
2023/11/02 00:36:08;;;;;;;;;;;10.20;99.90;;;;;;5035430;28;19927;-76
2023/11/02 00:38:33;;;;;;;;;;;10.20;99.90;;;;;;5053349;28;20518;-76
2023/11/02 00:41:00;;;;;;;;;;;10.20;99.90;;;;;;5052891;28;19911;-77
2023/11/02 00:43:28;;;;;;;;;;;10.20;99.90;;;;;;5053562;28;19911;-76
2023/11/02 00:45:55;;;;;;;;;;;10.20;99.90;;;;;;5034387;28;19909;-76
2023/11/02 00:48:26;;;;;;;;;;;10.10;99.90;;;;;;5035224;28;20372;-77
2023/11/02 00:51:19;;;;;;;;;;;10.00;99.90;;;;;;5052902;28;19909;-77
2023/11/02 00:53:52;;;;;;;;;;;10.00;99.90;;;;;;5053608;28;20312;-76
2023/11/02 00:56:18;;;;;;;;;;;10.00;99.90;;;;;;5053697;28;19980;-78
2023/11/02 00:58:46;;;;;;;;;;;10.00;99.90;;;;;;5054527;28;19936;-76
2023/11/02 01:01:12;;;;;;;;;;;10.10;99.90;;;;;;5053979;28;19955;-76
2023/11/02 01:03:38;;;;;;;;;;;10.00;99.90;;;;;;5053742;28;19911;-76
2023/11/02 01:06:11;;;;;;;;;;;10.00;99.90;;;;;;5054291;28;20375;-76
2023/11/02 01:08:37;;;;;;;;;;;10.00;99.90;;;;;;5052868;28;19908;-77
2023/11/02 01:11:03;;;;;;;;;;;10.00;99.90;;;;;;5053070;28;19912;-77
2023/11/02 01:13:28;;;;;;;;;;;10.00;99.90;;;;;;5054532;28;19910;-76
2023/11/02 01:16:10;;;;;;;;;;;10.00;99.90;;;;;;5053012;28;20284;-76
2023/11/02 01:18:37;;;;;;;;;;;10.20;99.90;;;;;;5036119;28;19944;-76
2023/11/02 01:21:04;;;;;;;;;;;10.20;99.90;;;;;;5053481;28;19905;-77
2023/11/02 01:23:30;;;;;;;;;;;10.20;99.90;;;;;;5053160;28;19904;-76
2023/11/02 01:25:56;;;;;;;;;;;10.30;99.90;;;;;;5053505;28;20399;-77
2023/11/02 01:28:23;;;;;;;;;;;10.30;99.90;;;;;;5053716;28;19909;-76
2023/11/02 01:31:00;;;;;;;;;;;10.30;99.90;;;;;;5053676;28;19916;-76
2023/11/02 01:33:38;;;;;;;;;;;10.20;99.90;;;;;;5052550;28;19909;-78
2023/11/02 01:36:05;;;;;;;;;;;10.20;99.90;;;;;;5052395;28;20390;-77
2023/11/02 01:38:31;;;;;;;;;;;10.10;99.90;;;;;;5032203;28;19925;-77
2023/11/02 01:40:59;;;;;;;;;;;10.00;99.90;;;;;;5034122;28;19913;-76
2023/11/02 01:43:37;;;;;;;;;;;10.10;99.90;;;;;;5033957;28;19912;-76
2023/11/02 01:46:04;;;;;;;;;;;10.10;99.90;;;;;;5034050;28;19909;-76
2023/11/02 01:48:39;;;;;;;;;;;10.00;99.90;;;;;;5032520;28;19909;-77
2023/11/02 01:51:10;;;;;;;;;;;10.00;99.90;;;;;;5034013;28;20356;-76
2023/11/02 01:53:42;;;;;;;;;;;10.10;99.90;;;;;;5033267;28;19912;-78
2023/11/02 01:56:41;;;;;;;;;;;10.20;99.90;;;;;;5035561;28;19909;-77
2023/11/02 01:59:25;;;;;;;;;;;10.20;99.90;;;;;;4982655;28;19920;-76
2023/11/02 02:01:56;;;;;;;;;;;10.30;99.90;;;;;;5031981;28;19913;-78
2023/11/02 02:04:25;;;;;;;;;;;10.40;99.90;;;;;;5031349;28;19909;-77
2023/11/02 02:07:23;;;;;;;;;;;10.30;99.90;;;;;;5031744;28;19935;-77
2023/11/02 02:10:00;;;;;;;;;;;10.30;99.90;;;;;;4981065;28;20415;-75
2023/11/02 02:12:37;;;;;;;;;;;10.30;99.90;;;;;;5031348;28;19916;-76
2023/11/02 02:15:02;;;;;;;;;;;10.30;99.90;;;;;;5031613;28;19905;-77
2023/11/02 02:17:43;;;;;;;;;;;10.40;99.90;;;;;;5031884;28;19905;-77
2023/11/02 02:20:10;;;;;;;;;;;10.40;99.90;;;;;;5031707;28;19917;-76
2023/11/02 02:22:48;;;;;;;;;;;10.40;99.90;;;;;;5031872;28;19928;-77
2023/11/02 02:25:13;;;;;;;;;;;10.30;99.90;;;;;;5026347;28;19912;-76
2023/11/02 02:28:03;;;;;;;;;;;10.30;99.90;;;;;;5030566;28;20012;-77
2023/11/02 02:30:32;;;;;;;;;;;10.30;99.90;;;;;;5031548;28;19952;-75
2023/11/02 02:33:17;;;;;;;;;;;10.30;99.90;;;;;;5031896;28;19909;-77
2023/11/02 02:36:01;;;;;;;;;;;10.50;99.90;;;;;;5031549;28;19995;-77
2023/11/02 02:38:30;;;;;;;;;;;10.50;99.90;;;;;;5037083;28;19913;-77
2023/11/02 02:41:03;;;;;;;;;;;10.60;99.90;;;;;;5051762;28;20014;-77
2023/11/02 02:43:30;;;;;;;;;;;10.60;99.90;;;;;;5033680;28;19909;-77
2023/11/02 02:45:56;;;;;;;;;;;10.60;99.90;;;;;;5051564;28;19905;-76
2023/11/02 02:48:22;;;;;;;;;;;10.40;99.90;;;;;;5052548;28;19912;-77
2023/11/02 02:50:50;;;;;;;;;;;10.30;99.90;;;;;;5037852;28;19927;-77
2023/11/02 02:53:16;;;;;;;;;;;10.30;99.90;;;;;;5056143;28;19916;-76
2023/11/02 02:55:43;;;;;;;;;;;10.20;99.90;;;;;;5056071;28;19909;-76
2023/11/02 02:58:11;;;;;;;;;;;10.30;99.90;;;;;;5055260;28;20376;-77
2023/11/02 03:00:39;;;;;;;;;;;10.40;99.90;;;;;;5037627;28;19923;-77
2023/11/02 03:03:05;;;;;;;;;;;10.40;99.90;;;;;;5037498;28;19908;-76
2023/11/02 03:05:32;;;;;;;;;;;10.50;99.90;;;;;;5037614;28;19921;-77
2023/11/02 03:08:01;;;;;;;;;;;10.50;99.90;;;;;;5055207;28;20471;-77
2023/11/02 03:10:27;;;;;;;;;;;10.50;99.90;;;;;;5037406;28;19908;-76
2023/11/02 03:12:54;;;;;;;;;;;10.50;99.90;;;;;;5055544;28;19927;-76
2023/11/02 03:15:20;;;;;;;;;;;10.50;99.90;;;;;;5037772;28;19916;-76
2023/11/02 03:18:05;;;;;;;;;;;10.40;99.90;;;;;;5054173;28;19948;-77
2023/11/02 03:20:31;;;;;;;;;;;10.40;99.90;;;;;;5054427;28;19955;-77
2023/11/02 03:23:04;;;;;;;;;;;10.30;99.90;;;;;;5054679;28;19932;-77
2023/11/02 03:25:38;;;;;;;;;;;10.30;99.90;;;;;;5055658;28;19904;-76
2023/11/02 03:28:15;;;;;;;;;;;10.30;99.90;;;;;;5054839;28;19915;-77
2023/11/02 03:30:52;;;;;;;;;;;10.20;99.90;;;;;;5037222;28;19924;-77
2023/11/02 03:33:25;;;;;;;;;;;10.20;99.90;;;;;;5055011;28;19983;-77
2023/11/02 03:35:51;;;;;;;;;;;10.10;99.90;;;;;;5056349;28;20554;-77
2023/11/02 03:38:28;;;;;;;;;;;10.10;99.90;;;;;;5056182;28;19967;-76
2023/11/02 03:40:57;;;;;;;;;;;10.10;99.90;;;;;;5038450;28;19912;-77
2023/11/02 03:43:25;;;;;;;;;;;10.10;99.90;;;;;;5056707;28;19911;-77
2023/11/02 03:45:56;;;;;;;;;;;10.10;99.90;;;;;;5056705;28;19957;-77
2023/11/02 03:48:38;;;;;;;;;;;10.10;99.90;;;;;;5057008;28;19967;-77
2023/11/02 03:51:22;;;;;;;;;;;10.10;99.90;;;;;;5056194;28;19905;-76
2023/11/02 03:54:03;;;;;;;;;;;10.20;99.90;;;;;;5054573;28;19958;-76
2023/11/02 03:56:46;;;;;;;;;;;10.30;99.90;;;;;;5038020;28;19912;-77
2023/11/02 03:59:15;;;;;;;;;;;10.30;99.90;;;;;;5056011;28;19908;-77
2023/11/02 04:01:43;;;;;;;;;;;10.30;99.90;;;;;;5053565;28;19912;-77
2023/11/02 04:04:16;;;;;;;;;;;10.20;99.90;;;;;;5056131;28;20442;-76
2023/11/02 04:06:52;;;;;;;;;;;10.20;99.90;;;;;;5056209;28;19912;-76
2023/11/02 04:09:18;;;;;;;;;;;10.20;99.90;;;;;;5054204;28;19913;-77
2023/11/02 04:11:54;;;;;;;;;;;10.20;99.90;;;;;;5057127;28;19909;-77
2023/11/02 04:14:23;;;;;;;;;;;10.20;99.90;;;;;;5036568;28;19912;-77
2023/11/02 04:16:48;;;;;;;;;;;10.10;99.90;;;;;;5052980;28;19905;-77
2023/11/02 04:19:14;;;;;;;;;;;10.10;99.90;;;;;;5054785;28;19909;-78
2023/11/02 04:21:40;;;;;;;;;;;10.10;99.90;;;;;;5054492;28;19909;-77
2023/11/02 04:24:06;;;;;;;;;;;10.00;99.90;;;;;;5053155;28;19971;-76
2023/11/02 04:26:32;;;;;;;;;;;10.10;99.90;;;;;;5053534;28;19909;-76
2023/11/02 04:28:58;;;;;;;;;;;10.00;99.90;;;;;;5052505;28;20399;-76
2023/11/02 04:31:24;;;;;;;;;;;10.00;99.90;;;;;;5053573;28;19904;-77
2023/11/02 04:33:49;;;;;;;;;;;10.10;99.90;;;;;;5053498;28;20700;-76
2023/11/02 04:36:15;;;;;;;;;;;10.10;99.90;;;;;;5035106;28;19909;-77
2023/11/02 04:38:40;;;;;;;;;;;10.00;99.90;;;;;;5035278;28;20376;-76
2023/11/02 04:41:06;;;;;;;;;;;10.00;99.90;;;;;;5053897;28;20018;-77
2023/11/02 04:43:31;;;;;;;;;;;9.90;99.90;;;;;;5038913;28;19912;-78
2023/11/02 04:45:57;;;;;;;;;;;10.00;99.90;;;;;;5057278;28;19986;-78
2023/11/02 04:48:22;;;;;;;;;;;10.00;99.90;;;;;;5038882;28;20010;-78
2023/11/02 04:50:55;;;;;;;;;;;10.00;99.90;;;;;;5037431;28;19909;-77
2023/11/02 04:53:21;;;;;;;;;;;9.90;99.90;;;;;;5035763;28;19905;-76
2023/11/02 04:55:47;;;;;;;;;;;10.00;99.90;;;;;;5035169;28;19915;-76
2023/11/02 04:58:13;;;;;;;;;;;10.00;99.90;;;;;;5051257;28;19905;-76
2023/11/02 05:00:39;;;;;;;;;;;9.90;99.90;;;;;;5053040;28;20017;-76
2023/11/02 05:03:04;;;;;;;;;;;9.80;99.90;;;;;;5051610;28;19905;-76
2023/11/02 05:05:30;;;;;;;;;;;9.80;99.90;;;;;;5052823;28;20471;-76
2023/11/02 05:07:55;;;;;;;;;;;9.80;99.90;;;;;;5034779;28;19904;-77
2023/11/02 05:10:21;;;;;;;;;;;9.90;99.90;;;;;;5034635;28;20465;-76
2023/11/02 05:12:46;;;;;;;;;;;9.90;99.90;;;;;;5034732;28;19959;-77
2023/11/02 05:15:12;;;;;;;;;;;9.80;99.90;;;;;;5051453;28;20031;-78
2023/11/02 05:17:37;;;;;;;;;;;9.80;99.90;;;;;;5053942;28;19999;-77
2023/11/02 05:20:03;;;;;;;;;;;9.80;99.90;;;;;;5036765;28;19955;-77
2023/11/02 05:22:29;;;;;;;;;;;9.70;99.90;;;;;;5035683;28;19909;-77
2023/11/02 05:24:54;;;;;;;;;;;9.70;99.90;;;;;;5036842;28;20295;-77
2023/11/02 05:27:20;;;;;;;;;;;9.60;99.90;;;;;;5036761;28;19995;-78
2023/11/02 05:29:46;;;;;;;;;;;9.50;99.90;;;;;;5036277;28;20474;-77
2023/11/02 05:32:12;;;;;;;;;;;9.70;99.90;;;;;;5035435;28;19959;-77
2023/11/02 05:34:38;;;;;;;;;;;9.80;99.90;;;;;;5035561;28;19909;-77
2023/11/02 05:37:04;;;;;;;;;;;9.90;99.90;;;;;;5035729;28;19916;-77
2023/11/02 05:39:30;;;;;;;;;;;9.90;99.90;;;;;;5053598;28;19917;-77
2023/11/02 05:41:56;;;;;;;;;;;10.00;99.90;;;;;;5054057;28;19905;-77
2023/11/02 05:44:21;;;;;;;;;;;10.00;99.90;;;;;;5052027;28;19911;-77
2023/11/02 05:46:47;;;;;;;;;;;9.90;99.90;;;;;;5036005;28;19916;-78
2023/11/02 05:49:13;;;;;;;;;;;9.80;99.90;;;;;;5054137;28;20483;-77
2023/11/02 05:51:38;;;;;;;;;;;9.70;99.90;;;;;;5036384;28;20392;-76
2023/11/02 05:54:04;;;;;;;;;;;9.60;99.90;;;;;;5053964;28;20439;-77
2023/11/02 05:56:29;;;;;;;;;;;9.60;99.90;;;;;;5052506;28;19928;-76
2023/11/02 05:58:57;;;;;;;;;;;9.50;99.90;;;;;;5052493;28;19920;-77
2023/11/02 06:01:27;;;;;;;;;;;9.50;99.90;;;;;;5037064;28;19999;-78
2023/11/02 06:03:52;;;;;;;;;;;9.50;99.90;;;;;;5053835;28;19905;-77
2023/11/02 06:06:18;;;;;;;;;;;9.50;99.90;;;;;;5052706;28;19928;-77
2023/11/02 06:08:44;;;;;;;;;;;9.60;99.90;;;;;;5053377;28;19967;-77
2023/11/02 06:11:09;;;;;;;;;;;9.60;99.90;;;;;;5035547;28;20284;-76
2023/11/02 06:13:35;;;;;;;;;;;9.60;99.90;;;;;;5053706;28;19909;-77
2023/11/02 06:16:00;;;;;;;;;;;9.60;99.90;;;;;;5052513;28;20277;-77
2023/11/02 06:18:26;;;;;;;;;;;9.60;99.90;;;;;;5052572;28;19916;-77
2023/11/02 06:20:55;;;;;;;;;;;9.70;99.90;;;;;;5054145;28;19904;-77
2023/11/02 06:23:20;;;;;;;;;;;9.70;99.90;;;;;;5054847;28;19909;-78
2023/11/02 06:25:46;;;;;;;;;;;9.80;99.90;;;;;;5037272;28;19905;-76
2023/11/02 06:28:12;;;;;;;;;;;9.80;99.90;;;;;;5051857;28;19909;-77
2023/11/02 06:30:37;;;;;;;;;;;10.00;99.90;;;;;;5050044;28;19905;-77
2023/11/02 06:33:04;;;;;;;;;;;10.20;99.90;;;;;;5051335;28;20759;-77
2023/11/02 06:35:29;;;;;;;;;;;10.30;99.90;;;;;;5051247;28;19908;-77
2023/11/02 06:37:59;;;;;;;;;;;10.30;99.90;;;;;;5033476;28;19970;-77
2023/11/02 06:40:25;;;;;;;;;;;10.40;99.90;;;;;;5050383;28;19920;-77
2023/11/02 06:42:51;;;;;;;;;;;10.50;99.90;;;;;;5052570;28;19916;-77
2023/11/02 06:45:17;;;;;;;;;;;10.70;99.90;;;;;;5034727;28;19911;-78
2023/11/02 06:47:42;;;;;;;;;;;10.70;99.90;;;;;;5034454;28;19904;-75
2023/11/02 06:50:08;;;;;;;;;;;10.90;99.90;;;;;;5050471;28;20423;-76
2023/11/02 06:52:34;;;;;;;;;;;11.00;99.90;;;;;;5032489;28;19909;-76
2023/11/02 06:54:59;;;;;;;;;;;11.10;99.90;;;;;;5032795;28;19915;-77
2023/11/02 06:57:25;;;;;;;;;;;11.10;99.90;;;;;;5049677;28;19905;-77
2023/11/02 06:59:50;;;;;;;;;;;11.00;99.90;;;;;;5049843;28;20420;-77
2023/11/02 07:02:17;;;;;;;;;;;11.00;99.90;;;;;;5049619;28;20007;-76
2023/11/02 07:04:43;;;;;;;;;;;11.00;99.90;;;;;;5033082;28;19912;-77
2023/11/02 07:07:08;;;;;;;;;;;11.00;99.90;;;;;;5051300;28;19908;-76
2023/11/02 07:09:34;;;;;;;;;;;11.10;99.90;;;;;;5051339;28;20376;-77
2023/11/02 07:12:00;;;;;;;;;;;11.20;99.90;;;;;;5033403;28;20270;-76
2023/11/02 07:14:26;;;;;;;;;;;11.00;99.90;;;;;;5032948;28;19916;-76
2023/11/02 07:16:51;;;;;;;;;;;10.80;99.90;;;;;;5051687;28;19909;-77
2023/11/02 07:19:17;;;;;;;;;;;10.70;99.90;;;;;;5051392;28;19913;-76
2023/11/02 07:21:42;;;;;;;;;;;10.90;99.90;;;;;;5050301;28;19916;-76
2023/11/02 07:24:08;;;;;;;;;;;10.90;99.90;;;;;;5032830;28;19983;-76
2023/11/02 07:26:36;;;;;;;;;;;10.90;99.90;;;;;;5049757;28;19970;-76
2023/11/02 07:29:02;;;;;;;;;;;10.80;99.90;;;;;;5050707;28;19916;-76
2023/11/02 07:31:27;;;;;;;;;;;11.00;99.90;;;;;;5050733;28;20112;-76
2023/11/02 07:33:53;;;;;;;;;;;10.90;99.90;;;;;;5032618;28;19940;-75
2023/11/02 07:36:19;;;;;;;;;;;10.80;99.90;;;;;;5053611;28;19931;-76
2023/11/02 07:38:44;;;;;;;;;;;10.80;99.90;;;;;;5053475;28;20292;-76
2023/11/02 07:41:11;;;;;;;;;;;10.70;99.90;;;;;;5055221;28;19999;-76
2023/11/02 07:43:36;;;;;;;;;;;10.80;99.90;;;;;;5036930;28;19908;-76
2023/11/02 07:46:02;;;;;;;;;;;10.90;99.90;;;;;;5053889;28;20285;-76
2023/11/02 07:48:27;;;;;;;;;;;11.30;99.90;;;;;;5036269;28;19983;-75
2023/11/02 07:50:53;;;;;;;;;;;11.40;99.90;;;;;;5054532;28;19908;-77
2023/11/02 07:53:22;;;;;;;;;;;11.50;99.90;;;;;;5053734;28;19908;-76
2023/11/02 07:55:48;;;;;;;;;;;11.60;99.90;;;;;;5055631;28;19982;-76
2023/11/02 07:58:14;;;;;;;;;;;11.60;99.90;;;;;;5055012;28;19908;-76
2023/11/02 08:00:39;;;;;;;;;;;11.70;99.90;;;;;;5054958;28;19917;-76
2023/11/02 08:03:05;;;;;;;;;;;11.80;99.90;;;;;;5036412;28;19915;-76
2023/11/02 08:05:31;;;;;;;;;;;12.00;99.90;;;;;;5053632;28;19920;-75
2023/11/02 08:07:56;;;;;;;;;;;12.30;99.90;;;;;;5036272;28;19909;-76
2023/11/02 08:10:22;;;;;;;;;;;12.60;99.90;;;;;;5054955;28;19919;-76
2023/11/02 08:12:47;;;;;;;;;;;12.80;99.90;;;;;;5054126;28;19904;-77
2023/11/02 08:15:13;;;;;;;;;;;13.10;99.90;;;;;;5036556;28;19908;-77
2023/11/02 08:17:41;;;;;;;;;;;13.10;99.90;;;;;;5035290;28;19905;-77
2023/11/02 08:20:07;;;;;;;;;;;13.30;99.90;;;;;;5036971;28;20012;-78
2023/11/02 08:22:32;;;;;;;;;;;13.50;99.90;;;;;;5035412;28;20373;-77
2023/11/02 08:24:58;;;;;;;;;;;13.80;99.90;;;;;;5053318;28;19962;-76
2023/11/02 08:27:24;;;;;;;;;;;13.90;99.90;;;;;;5052170;28;19905;-78
2023/11/02 08:29:50;;;;;;;;;;;13.90;99.90;;;;;;5037201;28;19923;-77
2023/11/02 08:32:16;;;;;;;;;;;13.90;99.90;;;;;;5036441;28;20023;-77
2023/11/02 08:34:42;;;;;;;;;;;13.90;99.90;;;;;;5036527;28;19909;-77
2023/11/02 08:37:08;;;;;;;;;;;13.80;99.90;;;;;;5055051;28;20377;-77
2023/11/02 08:39:35;;;;;;;;;;;13.90;99.90;;;;;;5038731;28;20305;-78
2023/11/02 08:42:01;;;;;;;;;;;13.90;99.90;;;;;;5053746;28;20364;-77
2023/11/02 08:44:27;;;;;;;;;;;14.00;99.90;;;;;;5052101;28;19931;-79
2023/11/02 08:46:53;;;;;;;;;;;14.30;99.90;;;;;;5052251;28;19915;-75
2023/11/02 08:49:20;;;;;;;;;;;14.70;99.90;;;;;;5052494;28;19944;-75
2023/11/02 08:51:46;;;;;;;;;;;15.10;99.10;;;;;;5052675;28;19911;-74
2023/11/02 08:54:11;;;;;;;;;;;15.10;98.50;;;;;;5034335;28;19912;-75
2023/11/02 08:56:37;;;;;;;;;;;15.00;98.70;;;;;;5052504;28;19911;-74
2023/11/02 08:59:02;;;;;;;;;;;15.00;99.20;;;;;;5052748;28;20012;-75
2023/11/02 09:01:28;;;;;;;;;;;14.90;99.90;;;;;;5034661;28;19904;-75
2023/11/02 09:03:55;;;;;;;;;;;14.70;99.60;;;;;;5052232;28;19955;-74
2023/11/02 09:06:21;;;;;;;;;;;14.60;99.80;;;;;;5052323;28;19975;-75
2023/11/02 09:08:48;;;;;;;;;;;14.40;99.90;;;;;;5035303;28;20003;-76
2023/11/02 09:11:14;;;;;;;;;;;14.40;99.90;;;;;;5052548;28;19959;-75
2023/11/02 09:13:40;;;;;;;;;;;14.40;99.90;;;;;;5052936;28;19924;-75
2023/11/02 09:16:06;;;;;;;;;;;14.50;99.90;;;;;;5052617;28;19913;-75
2023/11/02 09:18:31;;;;;;;;;;;14.40;99.90;;;;;;5052595;28;20000;-75
2023/11/02 09:20:57;;;;;;;;;;;14.30;99.90;;;;;;5052817;28;19916;-75
2023/11/02 09:23:22;;;;;;;;;;;14.40;99.90;;;;;;5051939;28;19904;-75
2023/11/02 09:25:48;;;;;;;;;;;14.30;99.90;;;;;;5052663;28;19916;-75
2023/11/02 09:28:17;;;;;;;;;;;14.30;99.90;;;;;;5034561;28;19912;-75
2023/11/02 09:30:44;;;;;;;;;;;14.30;99.90;;;;;;5034693;28;19915;-75
2023/11/02 09:33:10;;;;;;;;;;;14.20;99.90;;;;;;5034958;28;19909;-75
2023/11/02 09:35:35;;;;;;;;;;;14.20;99.90;;;;;;5052044;28;20365;-75
2023/11/02 09:38:01;;;;;;;;;;;14.10;99.90;;;;;;5052451;28;20377;-75
2023/11/02 09:40:26;;;;;;;;;;;14.20;99.90;;;;;;5052386;28;19920;-75
2023/11/02 09:42:53;;;;;;;;;;;14.30;99.90;;;;;;5052661;28;19904;-75
2023/11/02 09:45:18;;;;;;;;;;;14.20;99.90;;;;;;5034854;28;20361;-74
2023/11/02 09:47:47;;;;;;;;;;;14.10;99.90;;;;;;5051066;28;19911;-75
2023/11/02 09:50:13;;;;;;;;;;;14.20;99.90;;;;;;5034534;28;19915;-75
2023/11/02 09:52:39;;;;;;;;;;;14.30;99.90;;;;;;5048001;28;19904;-75
2023/11/02 09:55:05;;;;;;;;;;;14.30;99.90;;;;;;5048083;28;20288;-75
2023/11/02 09:57:31;;;;;;;;;;;14.30;99.90;;;;;;5034429;28;19908;-75
2023/11/02 09:59:57;;;;;;;;;;;14.30;99.90;;;;;;5052633;28;20007;-75
2023/11/02 10:02:24;;;;;;;;;;;14.20;99.90;;;;;;5035082;28;19904;-75
2023/11/02 10:04:49;;;;;;;;;;;14.40;99.90;;;;;;5034879;28;19912;-74
2023/11/02 10:07:15;;;;;;;;;;;14.40;99.90;;;;;;5052783;28;19904;-75
2023/11/02 10:09:42;;;;;;;;;;;14.40;99.90;;;;;;5052837;28;19905;-75
2023/11/02 10:12:08;;;;;;;;;;;14.40;99.90;;;;;;5034638;28;19904;-74
2023/11/02 10:14:34;;;;;;;;;;;14.40;99.90;;;;;;5051581;28;19905;-75
2023/11/02 10:17:04;;;;;;;;;;;14.40;99.90;;;;;;5035164;28;19911;-76
2023/11/02 10:19:30;;;;;;;;;;;14.50;99.90;;;;;;5033888;28;19916;-74
2023/11/02 10:21:56;;;;;;;;;;;14.40;99.90;;;;;;5035070;28;19912;-75
2023/11/02 10:24:28;;;;;;;;;;;14.40;99.90;;;;;;5034555;28;19909;-75
2023/11/02 10:26:54;;;;;;;;;;;14.40;99.90;;;;;;5060031;28;19908;-75
2023/11/02 10:29:20;;;;;;;;;;;14.40;99.90;;;;;;5075672;28;19985;-75
2023/11/02 10:31:46;;;;;;;;;;;14.50;99.90;;;;;;5050745;28;19920;-78
2023/11/02 10:34:13;;;;;;;;;;;14.60;99.90;;;;;;5061331;28;20384;-75
2023/11/02 10:36:39;;;;;;;;;;;14.50;99.90;;;;;;5035694;28;19909;-76
2023/11/02 10:39:05;;;;;;;;;;;14.40;99.90;;;;;;5056510;28;20455;-75
2023/11/02 10:41:32;;;;;;;;;;;14.30;99.90;;;;;;5054868;28;19912;-75
2023/11/02 10:44:00;;;;;;;;;;;14.30;99.90;;;;;;5070741;28;19954;-76
2023/11/02 10:46:27;;;;;;;;;;;14.40;99.90;;;;;;5072073;28;20100;-75
2023/11/02 10:48:53;;;;;;;;;;;14.30;99.90;;;;;;5055611;28;19991;-75
2023/11/02 10:51:24;;;;;;;;;;;14.40;99.90;;;;;;5055784;28;19916;-76
2023/11/02 10:53:53;;;;;;;;;;;14.50;99.90;;;;;;5054888;28;19991;-75
2023/11/02 10:56:22;;;;;;;;;;;14.50;99.90;;;;;;5053574;28;19957;-75
2023/11/02 10:58:54;;;;;;;;;;;14.60;99.90;;;;;;5070333;28;19909;-74
2023/11/02 11:01:20;;;;;;;;;;;14.50;99.90;;;;;;5069728;28;20395;-75
2023/11/02 11:03:49;;;;;;;;;;;14.50;99.90;;;;;;5052375;28;19904;-78
2023/11/02 11:06:15;;;;;;;;;;;14.40;99.90;;;;;;5051694;28;19908;-75
2023/11/02 11:08:42;;;;;;;;;;;14.50;99.90;;;;;;5052882;28;19909;-77
2023/11/02 11:11:09;;;;;;;;;;;14.50;99.90;;;;;;5056082;28;19905;-76
2023/11/02 11:13:35;;;;;;;;;;;14.60;99.90;;;;;;5056837;28;19911;-76
2023/11/02 11:16:03;;;;;;;;;;;14.60;99.90;;;;;;5057137;28;19912;-76
2023/11/02 11:18:29;;;;;;;;;;;14.60;99.90;;;;;;5073256;28;19908;-75
2023/11/02 11:20:55;;;;;;;;;;;14.50;99.90;;;;;;5056713;28;19951;-75
2023/11/02 11:23:21;;;;;;;;;;;14.50;99.90;;;;;;5056976;28;19908;-76
2023/11/02 11:25:56;;;;;;;;;;;14.60;99.90;;;;;;5072019;28;19909;-75
2023/11/02 11:28:29;;;;;;;;;;;14.50;99.90;;;;;;5045727;28;19956;-76
2023/11/02 11:30:55;;;;;;;;;;;14.50;99.90;;;;;;5036749;28;19916;-75
2023/11/02 11:33:39;;;;;;;;;;;14.70;99.90;;;;;;5055499;28;19909;-78
2023/11/02 11:36:18;;;;;;;;;;;14.70;99.90;;;;;;5066896;28;19905;-76
2023/11/02 11:38:44;;;;;;;;;;;14.60;99.90;;;;;;5069625;28;19916;-75
2023/11/02 11:41:28;;;;;;;;;;;14.70;99.90;;;;;;5056173;28;19904;-75
2023/11/02 11:44:03;;;;;;;;;;;14.70;99.90;;;;;;5073885;28;20380;-75
2023/11/02 11:46:55;;;;;;;;;;;14.80;99.90;;;;;;5074244;28;19904;-75
2023/11/02 11:49:36;;;;;;;;;;;14.70;99.90;;;;;;5052812;28;19923;-75
2023/11/02 11:52:17;;;;;;;;;;;14.80;99.90;;;;;;5056140;28;20053;-76
2023/11/02 11:54:43;;;;;;;;;;;14.60;99.90;;;;;;5049558;28;19904;-76
2023/11/02 11:57:08;;;;;;;;;;;14.60;99.90;;;;;;5074381;28;19915;-76
2023/11/02 11:59:53;;;;;;;;;;;14.60;99.90;;;;;;5074548;28;19913;-76
2023/11/02 12:02:35;;;;;;;;;;;14.70;99.90;;;;;;5055500;28;19911;-75
2023/11/02 12:05:01;;;;;;;;;;;14.70;99.90;;;;;;5062597;28;19934;-74
2023/11/02 12:07:26;;;;;;;;;;;14.80;99.90;;;;;;5056291;28;20444;-75
2023/11/02 12:09:52;;;;;;;;;;;14.70;99.90;;;;;;5074655;28;19905;-76
2023/11/02 12:12:20;;;;;;;;;;;14.50;99.90;;;;;;5056498;28;19904;-77
2023/11/02 12:14:47;;;;;;;;;;;14.40;99.90;;;;;;5074432;28;19908;-76
2023/11/02 12:17:12;;;;;;;;;;;14.60;99.90;;;;;;5051801;28;19905;-76
2023/11/02 12:19:41;;;;;;;;;;;14.80;99.90;;;;;;5053164;28;20287;-77
2023/11/02 12:22:07;;;;;;;;;;;14.60;99.90;;;;;;5054584;28;19912;-78
2023/11/02 12:24:37;;;;;;;;;;;14.60;99.90;;;;;;5057030;28;19915;-77
2023/11/02 12:27:12;;;;;;;;;;;14.60;99.90;;;;;;5055501;28;19908;-77
2023/11/02 12:29:38;;;;;;;;;;;14.70;99.90;;;;;;5049852;28;20324;-77
2023/11/02 12:32:03;;;;;;;;;;;14.70;99.90;;;;;;5069452;28;19905;-77
2023/11/02 12:34:29;;;;;;;;;;;14.60;99.90;;;;;;5073643;28;19904;-77
2023/11/02 12:36:56;;;;;;;;;;;14.70;99.90;;;;;;5074234;28;19911;-77
2023/11/02 12:39:21;;;;;;;;;;;14.70;99.90;;;;;;5055655;28;19996;-76
2023/11/02 12:41:53;;;;;;;;;;;14.70;99.90;;;;;;5074103;28;19908;-77
2023/11/02 12:44:21;;;;;;;;;;;14.70;99.90;;;;;;5073745;28;19963;-77
2023/11/02 12:46:52;;;;;;;;;;;14.80;99.90;;;;;;5073977;28;19916;-76
2023/11/02 12:49:25;;;;;;;;;;;14.80;99.90;;;;;;5056109;28;19947;-76
2023/11/02 12:51:53;;;;;;;;;;;14.90;99.90;;;;;;5073935;28;19916;-77
2023/11/02 12:54:19;;;;;;;;;;;14.90;99.90;;;;;;5074081;28;20343;-77
2023/11/02 12:56:45;;;;;;;;;;;14.90;99.90;;;;;;5073714;28;19908;-78
2023/11/02 12:59:12;;;;;;;;;;;14.80;99.90;;;;;;5074038;28;19916;-77
2023/11/02 13:01:48;;;;;;;;;;;15.00;99.90;;;;;;5074058;28;19974;-77
2023/11/02 13:04:14;;;;;;;;;;;15.10;99.90;;;;;;5073637;28;19912;-77
2023/11/02 13:06:40;;;;;;;;;;;15.00;99.90;;;;;;5075852;28;19908;-77
2023/11/02 13:09:07;;;;;;;;;;;15.10;99.90;;;;;;5075286;28;19911;-77
2023/11/02 13:11:32;;;;;;;;;;;15.20;99.90;;;;;;5072450;28;19915;-77
2023/11/02 13:13:58;;;;;;;;;;;15.10;99.90;;;;;;5055167;28;19904;-76
2023/11/02 13:16:23;;;;;;;;;;;15.10;99.90;;;;;;5053913;28;19915;-77
2023/11/02 13:18:52;;;;;;;;;;;15.10;99.90;;;;;;5057203;28;19908;-77
2023/11/02 13:21:17;;;;;;;;;;;15.20;99.90;;;;;;5072089;28;20392;-78
2023/11/02 13:23:46;;;;;;;;;;;15.20;99.90;;;;;;5069213;28;19953;-78
2023/11/02 13:26:12;;;;;;;;;;;15.20;99.90;;;;;;5066742;28;19939;-78
2023/11/02 13:28:38;;;;;;;;;;;15.30;99.90;;;;;;5083096;28;20522;-78
2023/11/02 13:31:06;;;;;;;;;;;15.20;99.90;;;;;;5060591;28;19904;-77
2023/11/02 13:33:32;;;;;;;;;;;15.00;99.90;;;;;;5054960;28;19919;-77
2023/11/02 13:35:57;;;;;;;;;;;15.00;99.90;;;;;;5083477;28;19904;-77
2023/11/02 13:38:23;;;;;;;;;;;15.00;99.90;;;;;;5064594;28;19939;-77
2023/11/02 13:40:48;;;;;;;;;;;15.00;99.90;;;;;;5064802;28;19916;-78
2023/11/02 13:43:14;;;;;;;;;;;14.70;99.90;;;;;;5079204;28;19965;-77
2023/11/02 13:45:40;;;;;;;;;;;14.60;99.90;;;;;;5065757;28;20375;-77
2023/11/02 13:48:05;;;;;;;;;;;14.60;99.90;;;;;;5064532;28;19904;-76
2023/11/02 13:50:31;;;;;;;;;;;14.60;99.90;;;;;;5084277;28;19908;-77
2023/11/02 13:52:56;;;;;;;;;;;14.50;99.90;;;;;;5063438;28;20331;-77
2023/11/02 13:55:22;;;;;;;;;;;14.50;99.90;;;;;;5085235;28;20437;-77
2023/11/02 13:57:47;;;;;;;;;;;14.50;99.90;;;;;;5083340;28;19939;-77
2023/11/02 14:00:16;;;;;;;;;;;14.60;99.90;;;;;;5063022;28;19912;-77
2023/11/02 14:02:42;;;;;;;;;;;14.70;99.90;;;;;;5064436;28;19912;-77
2023/11/02 14:05:08;;;;;;;;;;;14.80;99.90;;;;;;5058077;28;20254;-77
2023/11/02 14:07:34;;;;;;;;;;;14.80;99.90;;;;;;5071719;28;19932;-77
2023/11/02 14:09:59;;;;;;;;;;;14.90;99.90;;;;;;5058177;28;20724;-76
2023/11/02 14:12:25;;;;;;;;;;;15.00;99.90;;;;;;5059730;28;19908;-77
2023/11/02 14:14:50;;;;;;;;;;;15.10;99.90;;;;;;5081269;28;19999;-77
2023/11/02 14:17:16;;;;;;;;;;;15.10;99.90;;;;;;5083436;28;19912;-77
2023/11/02 14:19:42;;;;;;;;;;;15.10;99.90;;;;;;5065838;28;19920;-77
2023/11/02 14:22:08;;;;;;;;;;;15.10;99.90;;;;;;5080554;28;19954;-77
2023/11/02 14:24:33;;;;;;;;;;;15.00;99.90;;;;;;5071864;28;20295;-77